Terminal Aerodrome Forecast
Issued by NWS Charleston, WV

Current Version | Previous Version | Text Only | Print | Product List | Glossary Off
Versions: 1 2 3 4 5 6 7 8 9 10 11 12 13 14 15 16 17 18 19 20 21 22 23 24 25 26 27

826
FTUS41 KRLX 230845 AAA
TAFCRW
TAF AMD
KCRW 230845Z 2309/2406 11005KT P6SM BKN200 BKN250 WS020/14035KT
     FM231200 12012G18KT P6SM OVC200
     FM231700 12012G26KT P6SM -SHRA OVC140
     FM240000 12007KT P6SM OVC080=

USA.gov is the U.S. government's official web portal to all federal, state and local government web resources and services.